createdAt,value
2019-04-25T00:02:29.317Z,66.80
2019-04-25T00:04:59.196Z,67.70
2019-04-25T00:07:29.199Z,67.20
2019-04-25T00:09:59.647Z,67.20
2019-04-25T00:12:29.743Z,68.10
2019-04-25T00:15:01.265Z,67.70
2019-04-25T00:17:31.793Z,68.70
2019-04-25T00:20:01.767Z,68.00
2019-04-25T00:22:51.512Z,68.70
2019-04-25T00:25:45.901Z,68.90
2019-04-25T00:28:15.184Z,69.20
2019-04-25T00:30:46.046Z,68.20
2019-04-25T00:33:16.561Z,67.40
2019-04-25T00:35:46.451Z,68.50
2019-04-25T00:38:16.459Z,68.60
2019-04-25T00:40:46.467Z,67.80
2019-04-25T00:43:16.424Z,68.20
2019-04-25T00:45:47.577Z,69.60
2019-04-25T00:48:17.600Z,69.90
2019-04-25T00:50:47.988Z,67.80
2019-04-25T00:53:17.960Z,67.60
2019-04-25T00:55:48.630Z,68.60
2019-04-25T00:58:26.032Z,68.70
2019-04-25T01:01:13.227Z,69.30
2019-04-25T01:03:44.148Z,69.80
2019-04-25T01:06:14.617Z,69.90
2019-04-25T01:08:45.620Z,69.50
2019-04-25T01:11:34.960Z,70.30
2019-04-25T01:14:04.964Z,71.70
2019-04-25T01:16:35.083Z,71.90
2019-04-25T01:19:05.063Z,70.80
2019-04-25T01:21:34.948Z,70.40
2019-04-25T01:24:05.215Z,71.40
2019-04-25T01:26:35.198Z,72.50
2019-04-25T01:29:05.868Z,73.10
2019-04-25T01:31:36.213Z,73.20
2019-04-25T01:34:08.257Z,72.30
2019-04-25T01:36:48.666Z,76.20
2019-04-25T01:39:36.244Z,75.00
2019-04-25T01:42:23.606Z,75.70
2019-04-25T01:44:56.542Z,75.80
2019-04-25T01:47:26.129Z,77.00
2019-04-25T01:49:56.714Z,75.60
2019-04-25T01:52:26.868Z,76.20
2019-04-25T01:54:57.145Z,76.20
2019-04-25T01:57:27.112Z,77.20
2019-04-25T01:59:57.523Z,76.90
2019-04-25T02:02:29.159Z,78.50
2019-04-25T02:04:59.422Z,75.60
2019-04-25T02:07:30.498Z,77.00
2019-04-25T02:10:03.665Z,76.70
2019-04-25T02:12:39.610Z,78.90
2019-04-25T02:15:10.309Z,76.70
2019-04-25T02:17:40.601Z,76.00
2019-04-25T02:20:10.889Z,75.10
2019-04-25T02:22:41.169Z,75.30
2019-04-25T02:25:11.268Z,76.60
2019-04-25T02:27:41.184Z,75.80
2019-04-25T02:30:12.264Z,72.50
2019-04-25T02:32:44.210Z,71.00
2019-04-25T02:35:14.726Z,71.30
2019-04-25T02:37:45.235Z,68.10
2019-04-25T02:40:16.553Z,66.70
2019-04-25T02:42:46.531Z,67.20
2019-04-25T02:45:36.293Z,67.50
2019-04-25T02:48:27.967Z,68.50
2019-04-25T02:51:19.150Z,69.70
2019-04-25T02:53:50.661Z,73.30
2019-04-25T02:56:31.335Z,73.00
2019-04-25T02:58:54.209Z,77.50
2019-04-25T03:01:26.194Z,75.60
2019-04-25T03:03:57.583Z,75.70
2019-04-25T03:06:31.131Z,79.00
2019-04-25T03:09:02.034Z,74.60
2019-04-25T03:11:34.564Z,76.20
2019-04-25T03:14:07.006Z,75.50
2019-04-25T03:16:36.730Z,77.20
2019-04-25T03:19:28.736Z,75.50
2019-04-25T03:22:01.491Z,77.50
2019-04-25T03:24:31.971Z,74.10
2019-04-25T03:27:03.430Z,77.40
2019-04-25T03:29:34.303Z,70.40
2019-04-25T03:32:09.278Z,64.90
2019-04-25T03:34:36.757Z,62.70
2019-04-25T03:37:07.661Z,62.50
2019-04-25T03:39:37.952Z,59.50
2019-04-25T03:42:08.234Z,59.90
2019-04-25T03:44:38.412Z,60.10
2019-04-25T03:47:08.929Z,59.60
2019-04-25T03:49:40.172Z,61.00
2019-04-25T03:52:10.452Z,60.20
2019-04-25T03:54:40.678Z,58.40
2019-04-25T03:57:10.999Z,59.70
2019-04-25T03:59:40.927Z,57.70
2019-04-25T04:02:11.005Z,58.70
2019-04-25T04:04:40.984Z,58.90
2019-04-25T04:07:11.416Z,58.10
2019-04-25T04:09:43.528Z,57.00
2019-04-25T04:12:14.769Z,56.40
2019-04-25T04:14:45.257Z,56.50
2019-04-25T04:17:40.268Z,57.90
2019-04-25T04:20:29.312Z,56.90
2019-04-25T04:23:09.657Z,56.10
2019-04-25T04:25:39.819Z,56.10
2019-04-25T04:28:09.912Z,57.20
2019-04-25T04:30:40.008Z,56.00
2019-04-25T04:33:22.185Z,61.80
2019-04-25T04:35:41.936Z,59.30
2019-04-25T04:38:11.895Z,62.30
2019-04-25T04:40:41.860Z,61.90
2019-04-25T04:43:12.200Z,63.50
2019-04-25T04:45:45.021Z,67.90
2019-04-25T04:48:14.650Z,62.80
2019-04-25T04:50:45.751Z,64.50
2019-04-25T04:53:16.042Z,65.20
2019-04-25T04:55:46.500Z,66.20
2019-04-25T04:58:17.625Z,64.90
2019-04-25T05:00:47.892Z,66.40
2019-04-25T05:03:44.107Z,69.20
2019-04-25T05:06:21.764Z,69.60
2019-04-25T05:08:55.772Z,68.80
2019-04-25T05:11:25.843Z,66.40
2019-04-25T05:13:55.879Z,65.90
2019-04-25T05:16:25.987Z,70.40
2019-04-25T05:18:56.424Z,69.40
2019-04-25T05:21:26.457Z,67.50
2019-04-25T05:23:56.442Z,71.00
2019-04-25T05:26:26.504Z,70.60
2019-04-25T05:28:57.032Z,71.50
2019-04-25T05:31:48.947Z,71.00
2019-04-25T05:34:19.576Z,72.90
2019-04-25T05:36:49.910Z,68.60
2019-04-25T05:39:20.426Z,68.60
2019-04-25T05:42:08.137Z,66.20
2019-04-25T05:44:38.233Z,65.20
2019-04-25T05:47:09.032Z,65.50
2019-04-25T05:49:39.281Z,66.90
2019-04-25T05:52:09.954Z,64.60
2019-04-25T05:54:40.460Z,64.00
2019-04-25T05:57:13.610Z,59.70
2019-04-25T05:59:44.874Z,59.50
2019-04-25T06:02:15.676Z,61.60
2019-04-25T06:04:46.426Z,62.30
2019-04-25T06:07:18.000Z,65.60
2019-04-25T06:09:56.136Z,62.10
2019-04-25T06:12:59.040Z,61.70
2019-04-25T06:15:30.923Z,63.60
2019-04-25T06:18:35.946Z,61.50
2019-04-25T06:21:07.391Z,59.00
2019-04-25T06:24:04.325Z,58.20
2019-04-25T06:26:43.331Z,59.00
2019-04-25T06:29:14.059Z,58.50
2019-04-25T06:31:45.793Z,56.20
2019-04-25T06:34:16.286Z,57.00
2019-04-25T06:36:46.660Z,59.90
2019-04-25T06:39:17.187Z,58.00
2019-04-25T06:41:47.746Z,58.00
2019-04-25T06:44:35.602Z,58.60
2019-04-25T06:47:15.105Z,58.60
2019-04-25T06:49:45.461Z,56.70
2019-04-25T06:52:16.148Z,57.90
2019-04-25T06:54:46.713Z,56.40
2019-04-25T06:57:17.090Z,55.80
2019-04-25T06:59:47.528Z,56.20
2019-04-25T07:02:17.832Z,55.50
2019-04-25T07:04:48.305Z,52.30
2019-04-25T07:07:18.704Z,51.10
2019-04-25T07:09:49.025Z,52.20
2019-04-25T07:12:19.411Z,51.60
2019-04-25T07:14:49.921Z,52.10
2019-04-25T07:17:20.360Z,48.70
2019-04-25T07:19:50.948Z,46.90
2019-04-25T07:22:21.393Z,47.30
2019-04-25T07:24:51.646Z,45.10
2019-04-25T07:27:44.771Z,46.20
2019-04-25T07:30:48.431Z,50.00
2019-04-25T07:33:16.069Z,47.50
2019-04-25T07:35:46.360Z,44.50
2019-04-25T07:38:16.780Z,44.80
2019-04-25T07:40:47.349Z,47.20
2019-04-25T07:43:17.760Z,47.40
2019-04-25T07:45:48.241Z,45.70
2019-04-25T07:48:18.871Z,46.70
2019-04-25T07:50:50.673Z,49.00
2019-04-25T07:53:21.000Z,46.50
2019-04-25T07:55:51.461Z,48.50
2019-04-25T07:58:21.705Z,48.80
2019-04-25T08:00:53.948Z,47.70
2019-04-25T08:03:24.476Z,48.50
2019-04-25T08:05:55.024Z,49.70
2019-04-25T08:08:25.319Z,47.90
2019-04-25T08:11:04.049Z,50.70
2019-04-25T08:13:49.605Z,50.50
2019-04-25T08:16:23.239Z,49.70
2019-04-25T08:18:54.281Z,49.00
2019-04-25T08:21:24.976Z,50.50
2019-04-25T08:23:57.279Z,50.00
2019-04-25T08:26:27.712Z,49.80
2019-04-25T08:28:58.634Z,48.00
2019-04-25T08:31:31.077Z,46.80
2019-04-25T08:34:03.448Z,47.70
2019-04-25T08:36:38.173Z,47.20
2019-04-25T08:39:09.447Z,48.30
2019-04-25T08:41:40.064Z,47.40
2019-04-25T08:44:21.139Z,46.20
2019-04-25T08:46:53.399Z,46.90
2019-04-25T08:49:34.496Z,46.20
2019-04-25T08:52:05.368Z,47.60
2019-04-25T08:54:54.614Z,48.20
2019-04-25T08:57:44.173Z,45.60
2019-04-25T09:00:26.164Z,46.70
2019-04-25T09:03:00.579Z,47.10
2019-04-25T09:05:40.392Z,47.70
2019-04-25T09:08:12.167Z,49.60
2019-04-25T09:10:43.668Z,49.20
2019-04-25T09:13:15.176Z,46.90
2019-04-25T09:15:47.799Z,46.80
2019-04-25T09:18:18.225Z,45.30
2019-04-25T09:20:48.616Z,45.30
2019-04-25T09:23:18.980Z,48.60
2019-04-25T09:25:49.632Z,48.40
2019-04-25T09:28:20.027Z,48.60
2019-04-25T09:30:50.818Z,48.10
2019-04-25T09:33:21.181Z,45.70
2019-04-25T09:35:51.641Z,46.20
2019-04-25T09:38:21.850Z,46.30
2019-04-25T09:40:52.100Z,46.50
2019-04-25T09:43:23.511Z,45.20
2019-04-25T09:46:00.269Z,45.70
2019-04-25T09:48:37.455Z,46.80
2019-04-25T09:51:15.279Z,46.50
2019-04-25T09:54:42.383Z,45.90
2019-04-25T09:57:33.449Z,46.00
2019-04-25T10:00:04.740Z,46.90
2019-04-25T10:02:35.887Z,45.50
2019-04-25T10:05:07.652Z,44.20
2019-04-25T10:07:38.515Z,46.30
2019-04-25T10:10:09.506Z,46.10
2019-04-25T10:12:41.121Z,47.90
2019-04-25T10:15:52.908Z,43.90
2019-04-25T10:18:24.180Z,43.30
2019-04-25T10:20:54.660Z,45.10
2019-04-25T10:23:24.929Z,46.30
2019-04-25T10:25:55.196Z,45.60
2019-04-25T10:28:27.463Z,46.90
2019-04-25T10:30:58.056Z,46.50
2019-04-25T10:33:29.768Z,46.00
2019-04-25T10:36:01.178Z,45.40
2019-04-25T10:38:33.630Z,44.50
2019-04-25T10:41:05.115Z,45.10
2019-04-25T10:43:36.061Z,45.20
2019-04-25T10:46:08.156Z,47.40
2019-04-25T10:48:40.144Z,46.10
2019-04-25T10:51:13.900Z,45.50
2019-04-25T10:53:45.982Z,46.80
2019-04-25T10:56:17.756Z,45.60
2019-04-25T10:58:48.477Z,45.10
2019-04-25T11:01:19.171Z,47.10
2019-04-25T11:04:08.682Z,45.20
2019-04-25T11:06:40.850Z,46.20
2019-04-25T11:09:19.435Z,45.30
2019-04-25T11:11:50.887Z,44.80
2019-04-25T11:14:23.787Z,46.90
2019-04-25T11:16:55.246Z,45.50
2019-04-25T11:19:25.617Z,44.40
2019-04-25T11:21:56.477Z,45.00
2019-04-25T11:24:26.558Z,45.90
2019-04-25T11:26:57.564Z,44.70
2019-04-25T11:29:27.730Z,45.60
2019-04-25T11:31:57.953Z,45.70
2019-04-25T11:34:28.052Z,44.30
2019-04-25T11:36:58.299Z,43.90
2019-04-25T11:39:38.138Z,44.80
2019-04-25T11:42:14.964Z,45.70
2019-04-25T11:44:46.668Z,45.40
2019-04-25T11:47:17.455Z,48.40
2019-04-25T11:49:47.841Z,47.10
2019-04-25T11:52:27.348Z,47.50
2019-04-25T11:54:50.696Z,48.90
2019-04-25T11:57:21.180Z,47.90
2019-04-25T11:59:52.388Z,48.70
2019-04-25T12:02:24.608Z,48.70
2019-04-25T12:04:55.241Z,49.30
2019-04-25T12:07:25.812Z,47.90
2019-04-25T12:09:55.804Z,48.50
2019-04-25T12:12:25.821Z,48.40
2019-04-25T12:14:56.300Z,48.60
2019-04-25T12:17:26.296Z,50.00
2019-04-25T12:19:56.347Z,49.10
2019-04-25T12:22:26.596Z,49.80
2019-04-25T12:24:56.601Z,48.70
2019-04-25T12:27:27.640Z,50.60
2019-04-25T12:29:57.803Z,50.10
2019-04-25T12:32:27.771Z,50.30
2019-04-25T12:34:57.924Z,49.00
2019-04-25T12:37:28.057Z,48.30
2019-04-25T12:39:58.249Z,48.70
2019-04-25T12:42:28.464Z,49.30
2019-04-25T12:45:24.154Z,49.80
2019-04-25T12:47:58.002Z,48.30
2019-04-25T12:50:27.293Z,48.90
2019-04-25T12:52:58.101Z,49.60
2019-04-25T12:55:28.668Z,49.00
2019-04-25T12:57:59.099Z,49.20
2019-04-25T13:00:30.023Z,49.90
2019-04-25T13:03:00.252Z,49.40
2019-04-25T13:05:30.485Z,49.00
2019-04-25T13:08:01.160Z,49.20
2019-04-25T13:10:33.193Z,49.70
2019-04-25T13:13:04.053Z,49.90
2019-04-25T13:15:35.013Z,51.40
2019-04-25T13:18:05.473Z,50.20
2019-04-25T13:20:35.775Z,50.30
2019-04-25T13:23:07.567Z,49.30
2019-04-25T13:25:38.145Z,50.20
2019-04-25T13:28:28.446Z,48.70
2019-04-25T13:31:21.322Z,50.40
2019-04-25T13:34:05.810Z,48.30
2019-04-25T13:36:36.481Z,48.20
2019-04-25T13:39:15.080Z,46.70
2019-04-25T13:41:46.996Z,48.30
2019-04-25T13:44:17.305Z,48.40
2019-04-25T13:46:48.180Z,49.90
2019-04-25T13:49:19.468Z,48.60
2019-04-25T13:51:50.510Z,51.40
2019-04-25T13:54:21.824Z,51.70
2019-04-25T13:56:53.421Z,49.20
2019-04-25T13:59:23.876Z,50.40
2019-04-25T14:01:57.622Z,48.80
2019-04-25T14:04:28.096Z,48.50
2019-04-25T14:06:58.649Z,49.20
2019-04-25T14:09:29.189Z,48.60
2019-04-25T14:12:00.213Z,49.40
2019-04-25T14:14:30.952Z,50.80
2019-04-25T14:17:18.717Z,49.70
2019-04-25T14:20:20.850Z,51.00
2019-04-25T14:22:53.663Z,48.70
2019-04-25T14:25:26.976Z,48.20
2019-04-25T14:27:57.841Z,48.20
2019-04-25T14:30:30.628Z,49.20
2019-04-25T14:33:01.008Z,49.20
2019-04-25T14:35:31.418Z,48.80
2019-04-25T14:38:01.933Z,49.00
2019-04-25T14:40:33.236Z,48.30
2019-04-25T14:43:04.921Z,47.80
2019-04-25T14:45:44.278Z,46.30
2019-04-25T14:48:07.669Z,47.70
2019-04-25T14:50:38.142Z,48.30
2019-04-25T14:53:08.704Z,46.80
2019-04-25T14:55:50.539Z,46.10
2019-04-25T14:58:22.842Z,47.00
2019-04-25T15:01:05.684Z,47.40
2019-04-25T15:03:36.084Z,44.10
2019-04-25T15:06:06.330Z,45.40
2019-04-25T15:08:36.897Z,48.00
2019-04-25T15:11:07.130Z,44.10
2019-04-25T15:13:37.719Z,44.20
2019-04-25T15:16:08.961Z,45.60
2019-04-25T15:18:46.611Z,47.30
2019-04-25T15:21:11.612Z,49.00
2019-04-25T15:23:42.586Z,48.60
2019-04-25T15:26:13.085Z,49.20
2019-04-25T15:28:43.647Z,47.70
2019-04-25T15:31:14.621Z,48.30
2019-04-25T15:33:45.330Z,48.20
2019-04-25T15:36:20.963Z,46.60
2019-04-25T15:39:13.261Z,48.60
2019-04-25T15:41:49.425Z,48.10
2019-04-25T15:44:39.410Z,45.20
2019-04-25T15:47:12.812Z,45.30
2019-04-25T15:49:43.304Z,45.40
2019-04-25T15:52:14.476Z,45.30
2019-04-25T15:54:44.728Z,44.60
2019-04-25T15:57:15.140Z,47.10
2019-04-25T15:59:45.693Z,47.50
2019-04-25T16:02:16.963Z,48.00
2019-04-25T16:04:47.060Z,48.20
2019-04-25T16:07:18.330Z,48.40
2019-04-25T16:09:50.208Z,49.50
2019-04-25T16:12:20.554Z,49.40
2019-04-25T16:14:51.378Z,50.50
2019-04-25T16:17:21.560Z,50.30
2019-04-25T16:19:52.065Z,49.90
2019-04-25T16:22:23.012Z,50.30
2019-04-25T16:24:53.057Z,49.50
2019-04-25T16:27:23.375Z,51.00
2019-04-25T16:29:53.850Z,50.30
2019-04-25T16:32:25.336Z,51.30
2019-04-25T16:34:56.089Z,51.50
2019-04-25T16:37:26.828Z,51.90
2019-04-25T16:39:59.724Z,51.50
2019-04-25T16:42:30.369Z,53.70
2019-04-25T16:45:00.402Z,53.60
2019-04-25T16:47:31.878Z,52.90
2019-04-25T16:50:01.933Z,53.80
2019-04-25T16:52:31.993Z,53.60
2019-04-25T16:55:02.247Z,53.10
2019-04-25T16:57:33.188Z,54.30
2019-04-25T17:00:04.193Z,53.90
2019-04-25T17:02:37.517Z,54.30
2019-04-25T17:05:09.979Z,55.90
2019-04-25T17:07:40.987Z,54.40
2019-04-25T17:10:12.512Z,55.30
2019-04-25T17:12:42.611Z,57.50
2019-04-25T17:15:30.664Z,56.40
2019-04-25T17:18:06.596Z,56.60
2019-04-25T17:20:41.802Z,55.90
2019-04-25T17:23:12.204Z,56.10
2019-04-25T17:25:43.816Z,57.20
2019-04-25T17:28:14.731Z,56.90
2019-04-25T17:30:47.916Z,56.50
2019-04-25T17:33:43.126Z,57.00
2019-04-25T17:36:20.413Z,57.60
2019-04-25T17:39:07.838Z,57.70
2019-04-25T17:41:40.484Z,58.90
2019-04-25T17:44:10.918Z,58.30
2019-04-25T17:46:41.904Z,58.20
2019-04-25T17:49:12.971Z,58.50
2019-04-25T17:51:44.027Z,57.50
2019-04-25T17:54:14.644Z,58.50
2019-04-25T17:56:45.272Z,59.20
2019-04-25T17:59:15.408Z,61.00
2019-04-25T18:01:45.556Z,62.50
2019-04-25T18:04:16.406Z,62.50
2019-04-25T18:06:46.445Z,63.60
2019-04-25T18:09:16.961Z,63.60
2019-04-25T18:11:47.296Z,64.20
2019-04-25T18:14:17.397Z,63.80
2019-04-25T18:16:48.541Z,65.10
2019-04-25T18:19:25.143Z,63.70
2019-04-25T18:21:59.287Z,64.10
2019-04-25T18:24:46.992Z,65.20
2019-04-25T18:27:37.564Z,65.00
2019-04-25T18:30:08.276Z,64.90
2019-04-25T18:32:39.969Z,65.90
2019-04-25T18:35:24.887Z,65.00
2019-04-25T18:38:20.327Z,64.50
2019-04-25T18:41:03.980Z,65.80
2019-04-25T18:43:40.838Z,66.20
2019-04-25T18:46:17.699Z,65.60
2019-04-25T18:48:47.789Z,67.20
2019-04-25T18:51:18.312Z,76.40
2019-04-25T18:54:06.105Z,80.30
2019-04-25T18:56:57.411Z,88.60
2019-04-25T18:59:46.010Z,92.10
2019-04-25T19:02:46.398Z,95.50
2019-04-25T19:05:35.721Z,95.20
2019-04-25T19:08:07.608Z,91.80
2019-04-25T19:10:39.436Z,92.60
2019-04-25T19:13:12.997Z,91.50
2019-04-25T19:15:41.717Z,92.40
2019-04-25T19:18:11.997Z,93.30
2019-04-25T19:20:42.426Z,94.60
2019-04-25T19:23:12.400Z,91.10
2019-04-25T19:25:43.640Z,91.40
2019-04-25T19:28:13.758Z,92.90
2019-04-25T19:30:45.072Z,93.70
2019-04-25T19:33:15.340Z,98.20
2019-04-25T19:35:46.132Z,99.90
2019-04-25T19:38:16.761Z,99.90
2019-04-25T19:41:05.312Z,99.90
2019-04-25T19:44:00.613Z,99.90
2019-04-25T19:46:42.825Z,99.90
2019-04-25T19:49:13.470Z,99.90
2019-04-25T19:51:43.708Z,99.90
2019-04-25T19:54:14.949Z,99.90
2019-04-25T19:56:45.377Z,99.90
2019-04-25T19:59:15.559Z,99.90
2019-04-25T20:01:46.336Z,99.90
2019-04-25T20:04:35.476Z,99.90
2019-04-25T20:07:28.055Z,99.90
2019-04-25T20:10:29.094Z,99.90
2019-04-25T20:13:00.543Z,99.90
2019-04-25T20:15:30.945Z,99.90
2019-04-25T20:18:01.697Z,99.90
2019-04-25T20:20:31.965Z,99.90
2019-04-25T20:23:02.370Z,99.90
2019-04-25T20:25:32.541Z,99.90
2019-04-25T20:28:02.937Z,99.90
2019-04-25T20:30:33.777Z,99.90
2019-04-25T20:33:05.502Z,99.90
2019-04-25T20:35:36.450Z,99.90
2019-04-25T20:38:07.111Z,99.90
2019-04-25T20:40:37.526Z,99.90
2019-04-25T20:43:08.377Z,99.90
2019-04-25T20:45:39.863Z,99.90
2019-04-25T20:48:10.303Z,99.90
2019-04-25T20:50:40.533Z,99.90
2019-04-25T20:53:10.704Z,99.90
2019-04-25T20:55:41.128Z,99.90
2019-04-25T20:58:11.376Z,99.90
2019-04-25T21:00:44.901Z,99.90
2019-04-25T21:03:17.179Z,99.90
2019-04-25T21:05:48.561Z,99.90
2019-04-25T21:08:19.408Z,99.90
2019-04-25T21:10:50.680Z,99.90
2019-04-25T21:13:30.093Z,99.90
2019-04-25T21:16:18.928Z,99.90
2019-04-25T21:19:07.994Z,99.90
2019-04-25T21:21:38.224Z,99.90
2019-04-25T21:24:08.674Z,99.90
2019-04-25T21:26:39.239Z,99.90
2019-04-25T21:29:09.369Z,99.90
2019-04-25T21:32:01.515Z,99.90
2019-04-25T21:34:32.366Z,99.90
2019-04-25T21:37:02.924Z,99.90
2019-04-25T21:40:02.755Z,99.90
2019-04-25T21:42:56.215Z,99.90
2019-04-25T21:45:26.832Z,99.90
2019-04-25T21:47:57.392Z,99.90
2019-04-25T21:50:28.048Z,99.90
2019-04-25T21:52:59.140Z,99.90
2019-04-25T21:55:30.073Z,99.90
2019-04-25T21:58:00.860Z,99.90
2019-04-25T22:00:49.744Z,99.90
2019-04-25T22:03:39.342Z,99.90
2019-04-25T22:06:10.057Z,99.90
2019-04-25T22:08:40.236Z,99.90
2019-04-25T22:11:10.304Z,99.90
2019-04-25T22:13:41.050Z,99.90
2019-04-25T22:16:11.478Z,99.90
2019-04-25T22:18:42.722Z,99.90
2019-04-25T22:21:13.388Z,99.90
2019-04-25T22:23:43.887Z,99.90
2019-04-25T22:26:14.617Z,99.90
2019-04-25T22:28:45.048Z,99.90
2019-04-25T22:31:23.206Z,99.90
2019-04-25T22:34:16.807Z,99.90
2019-04-25T22:36:47.251Z,99.90
2019-04-25T22:39:17.592Z,99.90
2019-04-25T22:41:48.883Z,99.90
2019-04-25T22:44:21.536Z,99.90
2019-04-25T22:46:52.359Z,99.90
2019-04-25T22:49:22.557Z,99.90
2019-04-25T22:51:53.563Z,99.90
2019-04-25T22:54:24.900Z,99.90
2019-04-25T22:56:55.169Z,99.90
2019-04-25T22:59:27.233Z,99.90
2019-04-25T23:02:10.325Z,99.90
2019-04-25T23:04:49.469Z,99.90
2019-04-25T23:07:20.668Z,99.90
2019-04-25T23:09:51.916Z,99.90
2019-04-25T23:12:22.611Z,99.90
2019-04-25T23:14:52.835Z,99.90
2019-04-25T23:17:23.004Z,99.90
2019-04-25T23:19:53.589Z,99.90
2019-04-25T23:22:23.776Z,99.90
2019-04-25T23:25:01.964Z,99.90
2019-04-25T23:28:00.199Z,99.90
2019-04-25T23:30:36.253Z,99.90
2019-04-25T23:33:06.788Z,99.90
2019-04-25T23:35:39.236Z,99.90
2019-04-25T23:38:12.144Z,99.90
2019-04-25T23:40:41.603Z,99.90
2019-04-25T23:43:12.176Z,99.90
2019-04-25T23:45:42.295Z,99.90
2019-04-25T23:48:12.855Z,99.90
2019-04-25T23:50:43.149Z,99.90
2019-04-25T23:53:14.951Z,99.90
2019-04-25T23:55:51.357Z,99.90
2019-04-25T23:58:21.756Z,99.90
